Henderson, MN (56044)

8:49 PM CST on February 08, 2016 (GMT -0600)
MesoWest | | Change Station
CLOSE
Current Station
Personal Weather Station
Location: Henderson, MN
Elevation: 724 ft
Nearby Weather Stations

Elev 724 ft 44.58 °N, 93.89 °W | Updated 3 hours ago

Overcast
Overcast
18.0 °F
Feels Like 18.0 °F
N
0.0
Wind Variable Wind from North
Gusts 0.0 mph

Today
High -- | Low -- °F
--% Chance of Precip.
Yesterday
High -- | Low -- °F
Precip. -- in
Pressure 29.99 in
Visibility 10.0 miles
Clouds Scattered Clouds 2400 ft
Overcast 4600 ft
Dew Point Not available.
Humidity Not available.
Rainfall in
Snow Depth Not available.
7:26 AM 5:34 PM
New Moon, 0% visible
METAR KGYL 090235Z AUTO 32014G22KT 10SM SCT024 OVC046 M10/M13 A2999 RMK AO2 T10981133
Pressure 29.99 in
Visibility 10.0 miles
Clouds Scattered Clouds 2400 ft
Overcast 4600 ft
Dew Point Not available.
Humidity Not available.
Rainfall in
Snow Depth Not available.
7:26 AM 5:34 PM
New Moon, 0% visible
METAR KGYL 090235Z AUTO 32014G22KT 10SM SCT024 OVC046 M10/M13 A2999 RMK AO2 T10981133

10-Day Weather Forecast

Almanac

Astronomy

Feb. 08, 2016 Rise Set
Actual Time
Civil Twilight
Nautical Twilight
Astronomical Twilight
Moon
Length of Visible Light
Length of Day
Tomorrow will be .
, % of the Moon is Illuminated

Today's Extremes

State Highs State Lows

Community

WunderPhotos

Upload Photos

1,891,527 photos uploaded!

WunderBlog® & News

Nearby

Air Quality

  Air Quality AQ Index Pollutant
Not available.

Snow Depth

Station Depth Elevation

Earthquake Activity

City Distance Mag. Time & Date
Minimum magnitude displayed is 2.5.

Coastal Water Temperatures

Place Temperature

Stations

Nearby Weather Stations

Station Location Temp. Windchill Dew Point Humidity Wind Precip. Elev Updated Type
                   

Watches & Warnings

There are currently no watches in effect.